Time;durP1;ratioP1;P1;durP2;ratioP2;P2;SDS_P1;SDS_P2;PMS_P1;PMS_P2;Temp;Humidity;BMP_temperature;BMP_pressure;BME280_temperature;BME280_humidity;BME280_pressure;Samples;Min_cycle;Max_cycle;Signal;HPM_P1;HPM_P2
2023/09/21 00:01:38;;;;;;;1.50;1.40;;;;;;;;;;5080820;28;20198;-64
2023/09/21 00:04:05;;;;;;;2.85;1.65;;;;;;;;;;5082349;28;20218;-65
2023/09/21 00:06:32;;;;;;;1.50;1.40;;;;;;;;;;5082125;28;20223;-65
2023/09/21 00:09:01;;;;;;;1.98;1.58;;;;;;;;;;5080043;28;20206;-65
2023/09/21 00:11:28;;;;;;;2.55;1.63;;;;;;;;;;5081569;28;20292;-64
2023/09/21 00:13:55;;;;;;;1.40;1.30;;;;;;;;;;5079791;28;20204;-65
2023/09/21 00:16:25;;;;;;;1.67;1.58;;;;;;;;;;5081097;28;20289;-69
2023/09/21 00:18:53;;;;;;;1.98;1.33;;;;;;;;;;5078870;28;20198;-69
2023/09/21 00:21:20;;;;;;;1.45;1.35;;;;;;;;;;5080989;28;20779;-69
2023/09/21 00:23:48;;;;;;;1.67;1.58;;;;;;;;;;5081757;28;20205;-69
2023/09/21 00:26:16;;;;;;;2.53;1.63;;;;;;;;;;5083851;28;20214;-69
2023/09/21 00:28:44;;;;;;;1.55;1.45;;;;;;;;;;5082677;28;20281;-69
2023/09/21 00:31:11;;;;;;;3.80;1.67;;;;;;;;;;5079121;28;20237;-69
2023/09/21 00:33:39;;;;;;;2.92;1.48;;;;;;;;;;5078152;28;20298;-69
2023/09/21 00:36:09;;;;;;;1.60;1.50;;;;;;;;;;5082350;28;20194;-69
2023/09/21 00:38:37;;;;;;;1.90;1.70;;;;;;;;;;5078681;28;20205;-69
2023/09/21 00:41:05;;;;;;;1.92;1.67;;;;;;;;;;5079372;28;20206;-69
2023/09/21 00:43:33;;;;;;;1.70;1.60;;;;;;;;;;5081743;28;20194;-69
2023/09/21 00:46:03;;;;;;;2.20;1.65;;;;;;;;;;5074336;28;20218;-69
2023/09/21 00:48:33;;;;;;;1.75;1.40;;;;;;;;;;5078318;28;20202;-69
2023/09/21 00:51:05;;;;;;;2.95;1.80;;;;;;;;;;5083476;28;20201;-69
2023/09/21 00:53:33;;;;;;;2.17;1.60;;;;;;;;;;5083189;28;20212;-68
2023/09/21 00:56:03;;;;;;;3.97;1.42;;;;;;;;;;5075632;28;20194;-69
2023/09/21 00:58:31;;;;;;;1.60;1.50;;;;;;;;;;5080111;28;20200;-69
2023/09/21 01:01:01;;;;;;;2.92;1.70;;;;;;;;;;5076010;28;20198;-69
2023/09/21 01:03:29;;;;;;;2.30;1.70;;;;;;;;;;5078437;28;20245;-69
2023/09/21 01:05:57;;;;;;;2.47;1.77;;;;;;;;;;5078317;28;20203;-69
2023/09/21 01:08:28;;;;;;;1.60;1.50;;;;;;;;;;5079783;28;20203;-69
2023/09/21 01:10:57;;;;;;;1.42;1.35;;;;;;;;;;5079806;28;20209;-69
2023/09/21 01:13:25;;;;;;;2.88;1.50;;;;;;;;;;5082194;28;20198;-69
2023/09/21 01:16:00;;;;;;;1.60;1.50;;;;;;;;;;5077712;28;20190;-69
2023/09/21 01:18:28;;;;;;;1.75;1.65;;;;;;;;;;5079150;28;20200;-69
2023/09/21 01:21:00;;;;;;;2.08;1.50;;;;;;;;;;5084103;28;20233;-69
2023/09/21 01:23:34;;;;;;;1.95;1.73;;;;;;;;;;5082408;28;20616;-69
2023/09/21 01:26:01;;;;;;;1.92;1.52;;;;;;;;;;5077202;28;20209;-69
2023/09/21 01:28:29;;;;;;;2.65;1.65;;;;;;;;;;5077088;28;20203;-69
2023/09/21 01:30:57;;;;;;;2.85;1.50;;;;;;;;;;5079071;28;20237;-69
2023/09/21 01:33:24;;;;;;;2.05;1.85;;;;;;;;;;5077602;28;20207;-69
2023/09/21 01:35:52;;;;;;;1.95;1.63;;;;;;;;;;5083053;28;20301;-69
2023/09/21 01:38:20;;;;;;;1.77;1.65;;;;;;;;;;5080659;28;20210;-69
2023/09/21 01:40:48;;;;;;;1.88;1.60;;;;;;;;;;5079284;28;20195;-69
2023/09/21 01:43:17;;;;;;;3.15;1.67;;;;;;;;;;5080086;28;20194;-69
2023/09/21 01:45:48;;;;;;;3.80;2.00;;;;;;;;;;5077383;28;20217;-69
2023/09/21 01:48:18;;;;;;;2.13;1.92;;;;;;;;;;5079333;28;20228;-69
2023/09/21 01:50:47;;;;;;;2.72;1.80;;;;;;;;;;5078110;28;20220;-69
2023/09/21 01:53:16;;;;;;;2.17;1.60;;;;;;;;;;5082553;28;20206;-69
2023/09/21 01:55:44;;;;;;;4.45;2.03;;;;;;;;;;5083535;28;20218;-69
2023/09/21 01:58:13;;;;;;;1.77;1.60;;;;;;;;;;5082216;28;20220;-69
2023/09/21 02:00:41;;;;;;;2.90;1.45;;;;;;;;;;5080541;28;20289;-69
2023/09/21 02:03:12;;;;;;;2.00;1.80;;;;;;;;;;5084680;28;20198;-69
2023/09/21 02:05:39;;;;;;;4.50;1.80;;;;;;;;;;5084538;28;20209;-69
2023/09/21 02:08:07;;;;;;;1.63;1.52;;;;;;;;;;5081909;28;20202;-69
2023/09/21 02:10:34;;;;;;;3.08;1.60;;;;;;;;;;5084138;28;20226;-69
2023/09/21 02:13:05;;;;;;;2.90;1.80;;;;;;;;;;5083470;28;20210;-69
2023/09/21 02:15:35;;;;;;;5.00;1.77;;;;;;;;;;5077785;28;20221;-69
2023/09/21 02:18:04;;;;;;;2.10;1.90;;;;;;;;;;5079875;28;20195;-69
2023/09/21 02:20:32;;;;;;;2.55;1.77;;;;;;;;;;5084248;28;20233;-69
2023/09/21 02:23:02;;;;;;;3.65;1.80;;;;;;;;;;5084166;28;20201;-69
2023/09/21 02:25:30;;;;;;;4.78;1.92;;;;;;;;;;5090337;28;20198;-70
2023/09/21 02:27:57;;;;;;;2.78;2.00;;;;;;;;;;5081874;28;20199;-69
2023/09/21 02:30:25;;;;;;;3.05;1.58;;;;;;;;;;5082698;28;20230;-69
2023/09/21 02:32:54;;;;;;;1.98;1.58;;;;;;;;;;5080837;28;20202;-70
2023/09/21 02:35:23;;;;;;;2.40;1.67;;;;;;;;;;5086483;28;20205;-69
2023/09/21 02:37:50;;;;;;;1.83;1.67;;;;;;;;;;5087201;28;20194;-69
2023/09/21 02:40:19;;;;;;;2.15;1.80;;;;;;;;;;5083635;28;20203;-69
2023/09/21 02:42:49;;;;;;;1.98;1.58;;;;;;;;;;5080189;28;20233;-69
2023/09/21 02:45:18;;;;;;;5.97;2.05;;;;;;;;;;5078935;28;20203;-69
2023/09/21 02:47:46;;;;;;;4.38;2.00;;;;;;;;;;5079987;28;20214;-69
2023/09/21 02:50:15;;;;;;;2.20;1.42;;;;;;;;;;5083471;28;20234;-70
2023/09/21 02:52:47;;;;;;;1.88;1.60;;;;;;;;;;5081859;28;20230;-69
2023/09/21 02:55:16;;;;;;;2.58;2.05;;;;;;;;;;5081839;28;20195;-70
2023/09/21 02:57:43;;;;;;;2.75;1.80;;;;;;;;;;5084793;28;20198;-64
2023/09/21 03:00:21;;;;;;;2.10;1.83;;;;;;;;;;5077876;28;20221;-64
2023/09/21 03:02:49;;;;;;;2.38;1.92;;;;;;;;;;5083266;28;20202;-65
2023/09/21 03:05:18;;;;;;;2.15;1.70;;;;;;;;;;5084996;28;20203;-66
2023/09/21 03:07:45;;;;;;;2.70;1.75;;;;;;;;;;5083347;28;20217;-66
2023/09/21 03:10:15;;;;;;;1.70;1.50;;;;;;;;;;5084679;28;20207;-65
2023/09/21 03:12:43;;;;;;;1.70;1.60;;;;;;;;;;5082532;28;20200;-66
2023/09/21 03:15:13;;;;;;;2.72;1.90;;;;;;;;;;5081386;28;20214;-65
2023/09/21 03:17:43;;;;;;;1.55;1.45;;;;;;;;;;5081693;28;20194;-66
2023/09/21 03:20:12;;;;;;;1.90;1.63;;;;;;;;;;5081667;28;20261;-64
2023/09/21 03:22:42;;;;;;;3.03;1.80;;;;;;;;;;5082398;28;20198;-68
2023/09/21 03:25:16;;;;;;;3.30;1.75;;;;;;;;;;5084999;28;20205;-65
2023/09/21 03:27:45;;;;;;;4.35;1.95;;;;;;;;;;5083998;28;20237;-66
2023/09/21 03:30:13;;;;;;;2.28;1.90;;;;;;;;;;5078861;28;20226;-65
2023/09/21 03:32:41;;;;;;;2.58;1.58;;;;;;;;;;5081457;28;20205;-66
2023/09/21 03:35:11;;;;;;;3.45;1.70;;;;;;;;;;5085512;28;20190;-64
2023/09/21 03:37:41;;;;;;;1.92;1.75;;;;;;;;;;5087841;28;20226;-66
2023/09/21 03:40:09;;;;;;;2.60;1.70;;;;;;;;;;5078657;28;20199;-67
2023/09/21 03:42:36;;;;;;;1.85;1.63;;;;;;;;;;5080147;28;20214;-66
2023/09/21 03:45:03;;;;;;;2.13;1.75;;;;;;;;;;5081710;28;20285;-65
2023/09/21 03:47:30;;;;;;;2.83;1.73;;;;;;;;;;5079644;28;20222;-65
2023/09/21 03:49:59;;;;;;;2.35;1.70;;;;;;;;;;5085205;28;20198;-65
2023/09/21 03:52:26;;;;;;;3.67;1.80;;;;;;;;;;5079762;28;20207;-65
2023/09/21 03:54:54;;;;;;;5.70;1.73;;;;;;;;;;5084218;28;20222;-66
2023/09/21 03:57:22;;;;;;;1.88;1.73;;;;;;;;;;5081975;28;20290;-66
2023/09/21 03:59:49;;;;;;;2.20;1.70;;;;;;;;;;5079839;28;20211;-66
2023/09/21 04:02:19;;;;;;;3.35;2.00;;;;;;;;;;5084411;28;20210;-66
2023/09/21 04:04:46;;;;;;;4.20;1.85;;;;;;;;;;5077050;28;20233;-66
2023/09/21 04:07:15;;;;;;;2.92;1.73;;;;;;;;;;5073478;28;20222;-66
2023/09/21 04:09:42;;;;;;;3.05;1.70;;;;;;;;;;5082636;28;20202;-65
2023/09/21 04:12:11;;;;;;;2.03;1.70;;;;;;;;;;5082372;28;20195;-65
2023/09/21 04:14:38;;;;;;;1.80;1.70;;;;;;;;;;5081480;28;20202;-65
2023/09/21 04:17:05;;;;;;;3.45;2.05;;;;;;;;;;5082327;28;20195;-65
2023/09/21 04:19:32;;;;;;;2.25;1.80;;;;;;;;;;5082750;28;20205;-64
2023/09/21 04:21:59;;;;;;;2.33;1.70;;;;;;;;;;5079770;28;20198;-65
2023/09/21 04:24:26;;;;;;;2.03;1.80;;;;;;;;;;5080747;28;20205;-64
2023/09/21 04:26:53;;;;;;;2.00;1.80;;;;;;;;;;5079993;28;20217;-65
2023/09/21 04:29:24;;;;;;;2.67;1.67;;;;;;;;;;5079938;28;20203;-66
2023/09/21 04:31:51;;;;;;;1.90;1.75;;;;;;;;;;5082358;28;20236;-66
2023/09/21 04:34:19;;;;;;;2.97;1.88;;;;;;;;;;5083147;28;20207;-65
2023/09/21 04:36:47;;;;;;;2.45;1.73;;;;;;;;;;5079194;28;20186;-65
2023/09/21 04:39:15;;;;;;;2.55;1.80;;;;;;;;;;5086353;28;20263;-65
2023/09/21 04:41:42;;;;;;;3.08;1.85;;;;;;;;;;5077941;28;20199;-66
2023/09/21 04:44:09;;;;;;;3.25;1.75;;;;;;;;;;5080728;28;20205;-66
2023/09/21 04:46:38;;;;;;;2.88;1.92;;;;;;;;;;5077871;28;20210;-64
2023/09/21 04:49:05;;;;;;;2.13;1.60;;;;;;;;;;5080894;28;20194;-64
2023/09/21 04:51:33;;;;;;;3.65;1.55;;;;;;;;;;5080338;28;20198;-64
2023/09/21 04:54:00;;;;;;;2.53;1.52;;;;;;;;;;5080057;28;20194;-65
2023/09/21 04:56:28;;;;;;;3.15;1.75;;;;;;;;;;5082243;28;20209;-65
2023/09/21 04:58:55;;;;;;;4.45;2.13;;;;;;;;;;5078941;28;20272;-66
2023/09/21 05:01:24;;;;;;;2.15;1.85;;;;;;;;;;5077481;28;20260;-66
2023/09/21 05:03:52;;;;;;;3.47;1.85;;;;;;;;;;5080232;28;20202;-66
2023/09/21 05:06:21;;;;;;;2.35;1.83;;;;;;;;;;5080141;28;20272;-65
2023/09/21 05:08:48;;;;;;;2.95;1.70;;;;;;;;;;5086370;28;20574;-66
2023/09/21 05:11:16;;;;;;;1.70;1.50;;;;;;;;;;5080386;28;20209;-65
2023/09/21 05:13:43;;;;;;;1.80;1.67;;;;;;;;;;5079694;28;20201;-65
2023/09/21 05:16:10;;;;;;;1.98;1.75;;;;;;;;;;5084113;28;20265;-67
2023/09/21 05:18:37;;;;;;;4.43;1.60;;;;;;;;;;5077913;28;20198;-68
2023/09/21 05:21:05;;;;;;;1.95;1.80;;;;;;;;;;5078780;28;20203;-68
2023/09/21 05:23:33;;;;;;;1.80;1.52;;;;;;;;;;5076257;28;20209;-68
2023/09/21 05:26:00;;;;;;;3.20;1.60;;;;;;;;;;5076373;28;20206;-69
2023/09/21 05:28:28;;;;;;;5.22;1.80;;;;;;;;;;5085947;28;20203;-69
2023/09/21 05:30:56;;;;;;;2.85;1.70;;;;;;;;;;5088305;28;20234;-68
2023/09/21 05:33:23;;;;;;;2.03;1.80;;;;;;;;;;5088089;28;20293;-68
2023/09/21 05:35:54;;;;;;;2.35;1.77;;;;;;;;;;5084601;28;20206;-68
2023/09/21 05:38:22;;;;;;;2.40;1.77;;;;;;;;;;5082832;28;20199;-68
2023/09/21 05:40:49;;;;;;;2.40;1.40;;;;;;;;;;5090193;28;20197;-68
2023/09/21 05:43:17;;;;;;;2.85;1.60;;;;;;;;;;5085080;28;20206;-68
2023/09/21 05:45:44;;;;;;;2.45;1.85;;;;;;;;;;5082587;28;20198;-69
2023/09/21 05:48:15;;;;;;;3.38;1.80;;;;;;;;;;5081849;28;20498;-69
2023/09/21 05:50:43;;;;;;;3.67;1.85;;;;;;;;;;5081201;28;20211;-68
2023/09/21 05:53:11;;;;;;;1.67;1.58;;;;;;;;;;5084479;28;20230;-69
2023/09/21 05:55:39;;;;;;;2.10;1.60;;;;;;;;;;5083115;28;20194;-69
2023/09/21 05:58:07;;;;;;;3.10;1.80;;;;;;;;;;5086195;28;20199;-68
2023/09/21 06:00:34;;;;;;;2.83;1.50;;;;;;;;;;5081732;28;20202;-68
2023/09/21 06:03:02;;;;;;;3.97;1.73;;;;;;;;;;5086027;28;20203;-69
2023/09/21 06:05:29;;;;;;;2.17;1.70;;;;;;;;;;5083231;28;20198;-69
2023/09/21 06:07:56;;;;;;;3.35;1.67;;;;;;;;;;5080631;28;20202;-69
2023/09/21 06:10:23;;;;;;;3.60;1.60;;;;;;;;;;5089131;28;20274;-69
2023/09/21 06:12:54;;;;;;;1.67;1.58;;;;;;;;;;5083486;28;20202;-69
2023/09/21 06:15:21;;;;;;;3.60;1.60;;;;;;;;;;5085183;28;20201;-69
2023/09/21 06:17:48;;;;;;;2.05;1.50;;;;;;;;;;5086384;28;20186;-69
2023/09/21 06:20:15;;;;;;;4.70;1.73;;;;;;;;;;5090149;28;20213;-69
2023/09/21 06:22:42;;;;;;;4.75;1.70;;;;;;;;;;5073776;28;20203;-69
2023/09/21 06:25:11;;;;;;;1.75;1.55;;;;;;;;;;5077097;28;20210;-69
2023/09/21 06:27:38;;;;;;;3.42;1.55;;;;;;;;;;5083025;28;20669;-68
2023/09/21 06:30:08;;;;;;;2.42;1.67;;;;;;;;;;5080127;28;20296;-68
2023/09/21 06:32:35;;;;;;;2.97;1.70;;;;;;;;;;5080840;28;20250;-69
2023/09/21 06:35:02;;;;;;;1.75;1.55;;;;;;;;;;5080965;28;20209;-68
2023/09/21 06:37:30;;;;;;;3.70;1.70;;;;;;;;;;5081757;28;20191;-69
2023/09/21 06:39:59;;;;;;;2.22;1.58;;;;;;;;;;5086537;28;20268;-68
2023/09/21 06:42:26;;;;;;;2.40;1.50;;;;;;;;;;5090086;28;20214;-69
2023/09/21 06:44:54;;;;;;;2.15;1.60;;;;;;;;;;5081231;28;20213;-68
2023/09/21 06:47:28;;;;;;;1.80;1.60;;;;;;;;;;5083510;28;20215;-68
2023/09/21 06:49:55;;;;;;;2.72;1.40;;;;;;;;;;5078793;28;20298;-69
2023/09/21 06:52:22;;;;;;;1.73;1.60;;;;;;;;;;5078761;28;20203;-68
2023/09/21 06:54:50;;;;;;;2.88;1.80;;;;;;;;;;5077456;28;20270;-69
2023/09/21 06:57:23;;;;;;;2.05;1.52;;;;;;;;;;5079434;28;20194;-68
2023/09/21 06:59:52;;;;;;;2.75;1.67;;;;;;;;;;5087487;28;20214;-69
2023/09/21 07:02:19;;;;;;;2.55;1.60;;;;;;;;;;5088610;28;20234;-68
2023/09/21 07:04:48;;;;;;;3.17;1.60;;;;;;;;;;5076033;28;20270;-68
2023/09/21 07:07:15;;;;;;;3.25;1.80;;;;;;;;;;5073424;28;20221;-68
2023/09/21 07:09:44;;;;;;;1.98;1.50;;;;;;;;;;5081324;28;20195;-68
2023/09/21 07:12:12;;;;;;;2.35;1.48;;;;;;;;;;5082332;28;20233;-68
2023/09/21 07:14:39;;;;;;;3.60;1.45;;;;;;;;;;5074825;28;20210;-68
2023/09/21 07:17:06;;;;;;;2.08;1.40;;;;;;;;;;5084303;28;20203;-67
2023/09/21 07:19:34;;;;;;;2.25;1.30;;;;;;;;;;5080894;28;20205;-68
2023/09/21 07:22:03;;;;;;;3.20;1.52;;;;;;;;;;5075777;28;20190;-68
2023/09/21 07:24:30;;;;;;;2.47;1.58;;;;;;;;;;5075377;28;20203;-68
2023/09/21 07:26:57;;;;;;;3.38;1.40;;;;;;;;;;5081415;28;20194;-67
2023/09/21 07:29:25;;;;;;;5.38;1.50;;;;;;;;;;5080359;28;20219;-67
2023/09/21 07:31:52;;;;;;;2.70;1.70;;;;;;;;;;5081495;28;20248;-67
2023/09/21 07:34:19;;;;;;;2.80;1.30;;;;;;;;;;5078237;28;20206;-67
2023/09/21 07:36:47;;;;;;;4.45;1.85;;;;;;;;;;5086128;28;20212;-65
2023/09/21 07:39:17;;;;;;;1.40;1.27;;;;;;;;;;5082946;28;20191;-64
2023/09/21 07:41:46;;;;;;;1.60;1.50;;;;;;;;;;5077707;28;20212;-65
2023/09/21 07:44:14;;;;;;;1.80;1.48;;;;;;;;;;5091720;28;20251;-64
2023/09/21 07:46:41;;;;;;;2.55;1.60;;;;;;;;;;5086916;28;20286;-65
2023/09/21 07:49:09;;;;;;;3.95;1.48;;;;;;;;;;5079992;28;20223;-63
2023/09/21 07:51:36;;;;;;;3.45;1.27;;;;;;;;;;5076457;28;20214;-63
2023/09/21 07:54:03;;;;;;;2.90;1.30;;;;;;;;;;5076887;28;20206;-63
2023/09/21 07:56:32;;;;;;;1.67;1.42;;;;;;;;;;5088113;28;20214;-63
2023/09/21 07:59:00;;;;;;;2.65;1.50;;;;;;;;;;5085080;28;20206;-64
2023/09/21 08:01:27;;;;;;;3.15;1.80;;;;;;;;;;5083156;28;20207;-65
2023/09/21 08:03:54;;;;;;;3.03;1.30;;;;;;;;;;5087059;28;20213;-64
2023/09/21 08:06:22;;;;;;;2.47;1.60;;;;;;;;;;5082921;28;20210;-64
2023/09/21 08:08:50;;;;;;;2.60;1.60;;;;;;;;;;5086453;28;20251;-64
2023/09/21 08:11:18;;;;;;;3.67;1.50;;;;;;;;;;5082381;28;20409;-64
2023/09/21 08:13:46;;;;;;;3.47;1.48;;;;;;;;;;5079558;28;20205;-63
2023/09/21 08:16:13;;;;;;;3.45;1.70;;;;;;;;;;5083379;28;20206;-64
2023/09/21 08:18:40;;;;;;;2.03;1.55;;;;;;;;;;5082835;28;20209;-63
2023/09/21 08:21:09;;;;;;;3.28;1.40;;;;;;;;;;5083839;28;20199;-64
2023/09/21 08:23:36;;;;;;;2.05;1.60;;;;;;;;;;5083688;28;20275;-64
2023/09/21 08:26:04;;;;;;;1.90;1.27;;;;;;;;;;5078195;28;20191;-63
2023/09/21 08:28:31;;;;;;;2.42;1.63;;;;;;;;;;5083235;28;20214;-63
2023/09/21 08:30:59;;;;;;;1.90;1.48;;;;;;;;;;5083404;28;20320;-63
2023/09/21 08:33:26;;;;;;;1.67;1.40;;;;;;;;;;5076131;28;20211;-63
2023/09/21 08:35:53;;;;;;;3.78;1.55;;;;;;;;;;5085132;28;20201;-64
2023/09/21 08:38:21;;;;;;;2.63;1.50;;;;;;;;;;5076759;28;20198;-63
2023/09/21 08:40:49;;;;;;;3.40;1.50;;;;;;;;;;5086303;28;20202;-63
2023/09/21 08:43:19;;;;;;;2.00;1.20;;;;;;;;;;5079223;28;20518;-63
2023/09/21 08:45:48;;;;;;;3.47;1.63;;;;;;;;;;5080598;28;20217;-65
2023/09/21 08:48:17;;;;;;;1.60;1.40;;;;;;;;;;5080918;28;20222;-67
2023/09/21 08:50:44;;;;;;;1.70;1.60;;;;;;;;;;5082365;28;20205;-67
2023/09/21 08:53:13;;;;;;;3.20;1.50;;;;;;;;;;5082203;28;20259;-67
2023/09/21 08:55:41;;;;;;;3.88;1.40;;;;;;;;;;5073058;28;20195;-67
2023/09/21 08:58:09;;;;;;;1.98;1.65;;;;;;;;;;5085485;28;20194;-65
2023/09/21 09:00:37;;;;;;;2.35;1.73;;;;;;;;;;5082484;28;20215;-63
2023/09/21 09:03:05;;;;;;;1.33;1.23;;;;;;;;;;5079062;28;20210;-64
2023/09/21 09:05:34;;;;;;;3.22;1.60;;;;;;;;;;5079960;28;20247;-64
2023/09/21 09:08:03;;;;;;;1.40;1.30;;;;;;;;;;5083360;28;20217;-64
2023/09/21 09:10:30;;;;;;;4.63;1.73;;;;;;;;;;5077967;28;20301;-64
2023/09/21 09:13:06;;;;;;;1.83;1.30;;;;;;;;;;5076924;28;20211;-64
2023/09/21 09:15:35;;;;;;;1.95;1.60;;;;;;;;;;5081901;28;20206;-64
2023/09/21 09:18:05;;;;;;;2.53;1.42;;;;;;;;;;5079871;28;20224;-63
2023/09/21 09:20:34;;;;;;;2.35;1.40;;;;;;;;;;5085638;28;20206;-63
2023/09/21 09:23:02;;;;;;;2.88;1.50;;;;;;;;;;5079555;28;20224;-62
2023/09/21 09:25:29;;;;;;;2.88;1.48;;;;;;;;;;5085749;28;20206;-63
2023/09/21 09:27:56;;;;;;;2.45;1.58;;;;;;;;;;5085231;28;20203;-63
2023/09/21 09:30:25;;;;;;;4.55;1.67;;;;;;;;;;5080574;28;20244;-63
2023/09/21 09:32:54;;;;;;;2.78;1.50;;;;;;;;;;5076506;28;20205;-63
2023/09/21 09:35:22;;;;;;;2.63;1.55;;;;;;;;;;5085041;28;20235;-64
2023/09/21 09:37:50;;;;;;;2.83;1.35;;;;;;;;;;5076731;28;20194;-64
2023/09/21 09:40:23;;;;;;;2.45;1.58;;;;;;;;;;5083838;28;20293;-64
2023/09/21 09:42:51;;;;;;;6.00;1.50;;;;;;;;;;5080418;28;20217;-63
2023/09/21 09:45:19;;;;;;;4.30;1.52;;;;;;;;;;5084784;28;20199;-63
2023/09/21 09:47:50;;;;;;;2.35;1.33;;;;;;;;;;5079745;28;20210;-63
2023/09/21 09:50:23;;;;;;;2.47;1.63;;;;;;;;;;5083878;28;20229;-64
2023/09/21 09:52:53;;;;;;;3.53;1.60;;;;;;;;;;5080889;28;20190;-63
2023/09/21 09:55:25;;;;;;;1.85;1.50;;;;;;;;;;5081117;28;20199;-63
2023/09/21 09:57:54;;;;;;;1.73;1.30;;;;;;;;;;5077458;28;20214;-64
2023/09/21 10:00:22;;;;;;;5.40;1.40;;;;;;;;;;5084910;28;20195;-64
2023/09/21 10:02:51;;;;;;;1.80;1.48;;;;;;;;;;5081543;28;20199;-64
2023/09/21 10:05:20;;;;;;;1.55;1.40;;;;;;;;;;5076952;28;20248;-63
2023/09/21 10:07:51;;;;;;;1.58;1.20;;;;;;;;;;5080854;28;20210;-67
2023/09/21 10:10:20;;;;;;;2.65;1.30;;;;;;;;;;5079622;28;20215;-67
2023/09/21 10:12:50;;;;;;;7.45;2.03;;;;;;;;;;5079884;28;20302;-68
2023/09/21 10:15:18;;;;;;;4.07;1.77;;;;;;;;;;5074384;28;20211;-68
2023/09/21 10:17:48;;;;;;;4.45;2.10;;;;;;;;;;5074479;28;20203;-68
2023/09/21 10:20:24;;;;;;;6.35;2.08;;;;;;;;;;5077506;28;20202;-68
2023/09/21 10:22:52;;;;;;;3.28;1.80;;;;;;;;;;5083726;28;20224;-68
2023/09/21 10:25:21;;;;;;;4.30;1.65;;;;;;;;;;5081532;28;20209;-68
2023/09/21 10:27:51;;;;;;;1.58;1.40;;;;;;;;;;5082500;28;20213;-68
2023/09/21 10:30:20;;;;;;;2.10;1.38;;;;;;;;;;5073863;28;20250;-67
2023/09/21 10:32:48;;;;;;;2.42;1.80;;;;;;;;;;5073792;28;20195;-68
2023/09/21 10:35:21;;;;;;;1.70;1.40;;;;;;;;;;5085652;28;20242;-68
2023/09/21 10:37:51;;;;;;;2.42;1.77;;;;;;;;;;5079530;28;20202;-67
2023/09/21 10:40:24;;;;;;;2.72;1.63;;;;;;;;;;5081120;28;20207;-67
2023/09/21 10:42:52;;;;;;;3.80;1.70;;;;;;;;;;5080859;28;20191;-67
2023/09/21 10:45:19;;;;;;;1.90;1.50;;;;;;;;;;5081376;28;20202;-67
2023/09/21 10:47:49;;;;;;;1.73;1.60;;;;;;;;;;5088313;28;20203;-67
2023/09/21 10:50:17;;;;;;;2.50;1.60;;;;;;;;;;5081168;28;20213;-67
2023/09/21 10:52:45;;;;;;;2.70;1.52;;;;;;;;;;5084592;28;20199;-68
2023/09/21 10:55:13;;;;;;;3.05;1.33;;;;;;;;;;5085407;28;20201;-68
2023/09/21 10:57:42;;;;;;;1.95;1.35;;;;;;;;;;5085872;28;20205;-68
2023/09/21 11:00:16;;;;;;;2.17;1.52;;;;;;;;;;5078230;28;20199;-67
2023/09/21 11:02:46;;;;;;;2.05;1.80;;;;;;;;;;5082610;28;20279;-68
2023/09/21 11:05:16;;;;;;;2.65;1.63;;;;;;;;;;5077955;28;20232;-68
2023/09/21 11:07:44;;;;;;;1.58;1.35;;;;;;;;;;5088986;28;20198;-67
2023/09/21 11:10:11;;;;;;;3.63;1.30;;;;;;;;;;5086605;28;20218;-68
2023/09/21 11:12:40;;;;;;;2.72;1.60;;;;;;;;;;5076489;28;20203;-67
2023/09/21 11:15:12;;;;;;;3.35;1.60;;;;;;;;;;5080090;28;20213;-68
2023/09/21 11:17:41;;;;;;;3.20;1.50;;;;;;;;;;5078890;28;20226;-65
2023/09/21 11:20:11;;;;;;;2.55;1.45;;;;;;;;;;5082106;28;20221;-64
2023/09/21 11:22:38;;;;;;;2.25;1.38;;;;;;;;;;5084530;28;20206;-63
2023/09/21 11:25:06;;;;;;;3.13;1.50;;;;;;;;;;5086837;28;20198;-63
2023/09/21 11:27:33;;;;;;;3.95;1.58;;;;;;;;;;5073726;28;20198;-65
2023/09/21 11:30:01;;;;;;;2.25;1.42;;;;;;;;;;5075877;28;20238;-63
2023/09/21 11:32:29;;;;;;;4.40;1.58;;;;;;;;;;5082404;28;20206;-64
2023/09/21 11:35:00;;;;;;;3.10;1.48;;;;;;;;;;5083607;28;20201;-64
2023/09/21 11:37:28;;;;;;;2.33;1.38;;;;;;;;;;5075032;28;20271;-63
2023/09/21 11:39:55;;;;;;;1.95;1.10;;;;;;;;;;5089635;28;20198;-64
2023/09/21 11:42:25;;;;;;;3.25;1.40;;;;;;;;;;5091824;28;20272;-65
2023/09/21 11:44:53;;;;;;;2.00;1.48;;;;;;;;;;5086242;28;20191;-64
2023/09/21 11:47:22;;;;;;;3.92;1.45;;;;;;;;;;5086473;28;20202;-65
2023/09/21 11:49:53;;;;;;;1.30;1.20;;;;;;;;;;5083662;28;20214;-63
2023/09/21 11:52:23;;;;;;;2.05;1.50;;;;;;;;;;5079601;28;20194;-64
2023/09/21 11:54:52;;;;;;;1.75;1.30;;;;;;;;;;5082146;28;20229;-63
2023/09/21 11:57:20;;;;;;;3.17;1.40;;;;;;;;;;5091048;28;20305;-64
2023/09/21 11:59:47;;;;;;;2.75;1.45;;;;;;;;;;5080841;28;20187;-64
2023/09/21 12:02:16;;;;;;;2.03;1.50;;;;;;;;;;5087941;28;20199;-65
2023/09/21 12:04:43;;;;;;;3.25;1.30;;;;;;;;;;5086823;28;20298;-63
2023/09/21 12:07:14;;;;;;;4.22;1.20;;;;;;;;;;5081502;28;20205;-63
2023/09/21 12:09:41;;;;;;;3.55;1.67;;;;;;;;;;5089063;28;20214;-64
2023/09/21 12:12:09;;;;;;;1.58;1.45;;;;;;;;;;5083185;28;20202;-63
2023/09/21 12:14:38;;;;;;;2.55;1.17;;;;;;;;;;5087227;28;20194;-64
2023/09/21 12:17:12;;;;;;;1.85;1.30;;;;;;;;;;5090561;28;20424;-64
2023/09/21 12:19:39;;;;;;;4.18;1.33;;;;;;;;;;5084358;28;20226;-64
2023/09/21 12:22:07;;;;;;;3.22;1.40;;;;;;;;;;5083649;28;20282;-64
2023/09/21 12:24:35;;;;;;;4.32;1.42;;;;;;;;;;5080836;28;20198;-63
2023/09/21 12:27:05;;;;;;;2.72;1.50;;;;;;;;;;5083262;28;20216;-63
2023/09/21 12:29:33;;;;;;;2.83;1.42;;;;;;;;;;5086901;28;20246;-63
2023/09/21 12:32:04;;;;;;;1.90;1.30;;;;;;;;;;5082339;28;20242;-63
2023/09/21 12:34:31;;;;;;;2.45;1.27;;;;;;;;;;5080665;28;20205;-63
2023/09/21 12:36:59;;;;;;;1.30;1.25;;;;;;;;;;5076894;28;20206;-64
2023/09/21 12:39:26;;;;;;;1.85;1.20;;;;;;;;;;5086357;28;20277;-64
2023/09/21 12:41:55;;;;;;;1.50;1.30;;;;;;;;;;5088466;28;20284;-64
2023/09/21 12:44:22;;;;;;;3.70;1.42;;;;;;;;;;5078593;28;20202;-64
2023/09/21 12:46:50;;;;;;;2.00;1.17;;;;;;;;;;5078634;28;20207;-64
2023/09/21 12:49:17;;;;;;;2.83;1.33;;;;;;;;;;5082657;28;20261;-64
2023/09/21 12:51:45;;;;;;;2.22;1.38;;;;;;;;;;5084596;28;20195;-64
2023/09/21 12:54:12;;;;;;;1.27;1.10;;;;;;;;;;5080180;28;20205;-64
2023/09/21 12:56:39;;;;;;;3.22;1.27;;;;;;;;;;5085470;28;20206;-64
2023/09/21 12:59:08;;;;;;;1.63;1.15;;;;;;;;;;5087263;28;20300;-64
2023/09/21 13:01:38;;;;;;;1.88;1.13;;;;;;;;;;5078943;28;20210;-64
2023/09/21 13:04:05;;;;;;;2.85;1.25;;;;;;;;;;5084442;28;20203;-64
2023/09/21 13:06:33;;;;;;;2.53;1.27;;;;;;;;;;5079488;28;20210;-64
2023/09/21 13:09:01;;;;;;;2.72;1.27;;;;;;;;;;5085025;28;20206;-64
2023/09/21 13:11:28;;;;;;;2.20;1.20;;;;;;;;;;5083620;28;20271;-64
2023/09/21 13:13:55;;;;;;;1.70;1.17;;;;;;;;;;5081212;28;20211;-64
2023/09/21 13:16:24;;;;;;;1.17;0.93;;;;;;;;;;5085872;28;20221;-64
2023/09/21 13:18:51;;;;;;;1.73;1.00;;;;;;;;;;5079166;28;20198;-63
2023/09/21 13:21:18;;;;;;;3.05;1.02;;;;;;;;;;5078591;28;20198;-63
2023/09/21 13:23:47;;;;;;;2.65;1.10;;;;;;;;;;5071332;28;20221;-63
2023/09/21 13:26:14;;;;;;;1.60;1.10;;;;;;;;;;5071378;28;20210;-64
2023/09/21 13:28:42;;;;;;;2.95;0.90;;;;;;;;;;5079250;28;20210;-64
2023/09/21 13:31:11;;;;;;;1.67;1.00;;;;;;;;;;5083222;28;20239;-63
2023/09/21 13:33:40;;;;;;;1.90;0.90;;;;;;;;;;5079698;28;20203;-64
2023/09/21 13:36:07;;;;;;;1.15;0.70;;;;;;;;;;5081187;28;20194;-67
2023/09/21 13:38:34;;;;;;;1.42;1.10;;;;;;;;;;5078613;28;20199;-67
2023/09/21 13:41:01;;;;;;;1.40;0.80;;;;;;;;;;5079418;28;20211;-67
2023/09/21 13:43:29;;;;;;;4.53;0.98;;;;;;;;;;5079202;28;20199;-67
2023/09/21 13:45:56;;;;;;;0.90;0.90;;;;;;;;;;5071116;28;20210;-67
2023/09/21 13:48:23;;;;;;;1.25;1.02;;;;;;;;;;5078879;28;20199;-68
2023/09/21 13:50:52;;;;;;;5.55;0.82;;;;;;;;;;5086210;28;20298;-67
2023/09/21 13:53:19;;;;;;;2.00;0.93;;;;;;;;;;5074430;28;20202;-68
2023/09/21 13:55:46;;;;;;;1.08;0.98;;;;;;;;;;5074996;28;20214;-68
2023/09/21 13:58:14;;;;;;;1.73;1.00;;;;;;;;;;5081358;28;20202;-67
2023/09/21 14:00:41;;;;;;;1.08;0.90;;;;;;;;;;5085319;28;20213;-68
2023/09/21 14:03:08;;;;;;;1.58;0.90;;;;;;;;;;5074179;28;20191;-69
2023/09/21 14:05:35;;;;;;;1.02;0.80;;;;;;;;;;5074746;28;20203;-67
2023/09/21 14:08:09;;;;;;;1.20;0.95;;;;;;;;;;5083210;28;20210;-67
2023/09/21 14:10:36;;;;;;;1.02;0.80;;;;;;;;;;5084386;28;20310;-67
2023/09/21 14:13:03;;;;;;;1.55;1.00;;;;;;;;;;5083033;28;20203;-67
2023/09/21 14:15:30;;;;;;;1.33;1.10;;;;;;;;;;5083459;28;20200;-68
2023/09/21 14:17:57;;;;;;;5.18;1.25;;;;;;;;;;5080494;28;20276;-67
2023/09/21 14:20:24;;;;;;;4.47;1.10;;;;;;;;;;5079974;28;20203;-67
2023/09/21 14:22:51;;;;;;;1.70;1.08;;;;;;;;;;5083390;28;20202;-67
2023/09/21 14:25:20;;;;;;;1.30;1.00;;;;;;;;;;5082614;28;20274;-67
2023/09/21 14:27:47;;;;;;;2.50;0.90;;;;;;;;;;5080655;28;20194;-67
2023/09/21 14:30:15;;;;;;;0.68;0.68;;;;;;;;;;5081103;28;20233;-68
2023/09/21 14:32:43;;;;;;;2.65;0.70;;;;;;;;;;5083997;28;20194;-67
2023/09/21 14:35:11;;;;;;;1.05;0.80;;;;;;;;;;5083470;28;20210;-67
2023/09/21 14:37:38;;;;;;;1.15;0.70;;;;;;;;;;5082572;28;20229;-67
2023/09/21 14:40:06;;;;;;;2.80;0.85;;;;;;;;;;5083173;28;20233;-68
2023/09/21 14:42:35;;;;;;;1.15;0.98;;;;;;;;;;5082365;28;20202;-67
2023/09/21 14:45:02;;;;;;;1.90;1.15;;;;;;;;;;5083921;28;20210;-67
2023/09/21 14:47:30;;;;;;;1.30;1.02;;;;;;;;;;5083660;28;20199;-63
2023/09/21 14:49:57;;;;;;;2.08;1.10;;;;;;;;;;5081945;28;20317;-64